createdAt,value
2022-09-07T00:00:40.389Z,1.40
2022-09-07T00:03:42.855Z,1.20
2022-09-07T00:06:44.507Z,1.70
2022-09-07T00:09:46.164Z,1.30
2022-09-07T00:12:47.797Z,1.10
2022-09-07T00:15:49.869Z,1.50
2022-09-07T00:18:58.179Z,1.30
2022-09-07T00:21:59.865Z,1.40
2022-09-07T00:25:02.033Z,1.20
2022-09-07T00:28:03.655Z,1.20
2022-09-07T00:31:10.908Z,1.20
2022-09-07T00:34:12.686Z,1.30
2022-09-07T00:37:14.341Z,1.60
2022-09-07T00:40:16.027Z,1.40
2022-09-07T00:43:33.050Z,1.50
2022-09-07T00:46:36.117Z,1.40
2022-09-07T00:49:39.233Z,1.30
2022-09-07T00:52:43.902Z,1.40
2022-09-07T00:55:48.302Z,1.40
2022-09-07T00:58:50.781Z,1.40
2022-09-07T01:01:53.048Z,1.40
2022-09-07T01:05:09.378Z,1.40
2022-09-07T01:08:13.500Z,1.40
2022-09-07T01:11:18.040Z,1.40
2022-09-07T01:14:23.173Z,1.60
2022-09-07T01:17:38.486Z,1.80
2022-09-07T01:21:32.051Z,1.50
2022-09-07T01:24:52.076Z,1.90
2022-09-07T01:28:06.443Z,1.60
2022-09-07T01:31:18.307Z,1.60
2022-09-07T01:34:25.371Z,1.40
2022-09-07T01:37:26.964Z,1.70
2022-09-07T01:40:44.272Z,1.70
2022-09-07T01:43:55.253Z,1.60
2022-09-07T01:47:12.870Z,1.80
2022-09-07T01:50:22.180Z,1.50
2022-09-07T01:53:33.168Z,1.80
2022-09-07T01:56:40.455Z,1.50
2022-09-07T01:59:47.629Z,1.60
2022-09-07T02:03:09.890Z,1.70
2022-09-07T02:06:50.059Z,1.60
2022-09-07T02:10:00.349Z,2.10
2022-09-07T02:13:12.733Z,1.70
2022-09-07T02:19:20.294Z,1.50
2022-09-07T02:22:30.479Z,1.60
2022-09-07T02:25:40.039Z,2.00
2022-09-07T02:28:42.137Z,1.80
2022-09-07T02:31:43.918Z,1.70
2022-09-07T02:34:45.782Z,2.20
2022-09-07T02:37:49.917Z,1.90
2022-09-07T02:40:56.388Z,1.60
2022-09-07T02:43:59.292Z,1.70
2022-09-07T02:47:00.827Z,1.70
2022-09-07T02:50:05.042Z,1.70
2022-09-07T02:53:28.363Z,1.90
2022-09-07T02:56:58.896Z,1.90
2022-09-07T03:00:10.910Z,1.60
2022-09-07T03:03:22.717Z,2.00
2022-09-07T03:06:33.064Z,2.00
2022-09-07T03:09:40.354Z,2.10
2022-09-07T03:12:44.656Z,2.10
2022-09-07T03:15:46.292Z,2.00
2022-09-07T03:18:48.113Z,2.40
2022-09-07T03:21:49.648Z,1.70
2022-09-07T03:24:51.166Z,2.20
2022-09-07T03:27:52.723Z,1.90
2022-09-07T03:30:54.311Z,1.80
2022-09-07T03:33:55.866Z,2.10
2022-09-07T03:36:57.369Z,2.30
2022-09-07T03:39:58.973Z,2.10
2022-09-07T03:43:00.668Z,1.90
2022-09-07T03:46:05.183Z,2.30
2022-09-07T03:49:06.772Z,2.10
2022-09-07T03:52:08.317Z,2.60
2022-09-07T03:55:10.581Z,1.90
2022-09-07T04:01:17.719Z,2.60
2022-09-07T04:04:19.348Z,2.50
2022-09-07T04:07:20.860Z,2.50
2022-09-07T04:10:22.370Z,2.20
2022-09-07T04:13:25.031Z,2.20
2022-09-07T04:16:27.504Z,2.60
2022-09-07T04:19:29.953Z,2.70
2022-09-07T04:22:31.516Z,2.50
2022-09-07T04:25:34.223Z,2.60
2022-09-07T04:28:35.758Z,2.40
2022-09-07T04:31:37.922Z,2.40
2022-09-07T04:34:39.498Z,2.40
2022-09-07T04:37:41.357Z,2.40
2022-09-07T04:40:43.386Z,2.70
2022-09-07T04:43:46.209Z,3.00
2022-09-07T04:46:47.787Z,2.50
2022-09-07T04:49:52.640Z,2.80
2022-09-07T04:52:54.219Z,2.60
2022-09-07T04:55:57.681Z,2.80
2022-09-07T04:59:01.000Z,2.80
2022-09-07T05:02:02.660Z,2.60
2022-09-07T05:05:05.683Z,2.80
2022-09-07T05:08:07.281Z,3.20
2022-09-07T05:11:10.109Z,2.40
2022-09-07T05:14:11.659Z,2.80
2022-09-07T05:17:13.203Z,2.50
2022-09-07T05:20:19.638Z,2.80
2022-09-07T05:23:23.767Z,2.40
2022-09-07T05:26:27.786Z,3.00
2022-09-07T05:32:52.201Z,3.60
2022-09-07T05:38:59.376Z,3.10
2022-09-07T05:42:00.969Z,4.10
2022-09-07T05:45:03.473Z,3.80
2022-09-07T05:48:04.998Z,3.60
2022-09-07T05:51:06.870Z,4.30
2022-09-07T05:54:10.228Z,4.20
2022-09-07T05:57:12.686Z,3.80
2022-09-07T06:00:14.624Z,4.30
2022-09-07T06:03:16.339Z,4.50
2022-09-07T06:06:18.686Z,4.40
2022-09-07T06:12:21.752Z,4.30
2022-09-07T06:15:23.374Z,4.90
2022-09-07T06:18:29.084Z,4.70
2022-09-07T06:21:30.754Z,4.90
2022-09-07T06:24:32.269Z,4.10
2022-09-07T06:27:33.973Z,4.40
2022-09-07T06:30:35.657Z,4.40
2022-09-07T06:33:37.215Z,4.40
2022-09-07T06:36:38.782Z,4.30
2022-09-07T06:39:40.720Z,4.00
2022-09-07T06:42:42.494Z,4.20
2022-09-07T06:45:52.024Z,4.60
2022-09-07T06:48:54.156Z,4.70
2022-09-07T06:51:55.739Z,4.30
2022-09-07T06:58:03.904Z,4.70
2022-09-07T07:01:17.065Z,5.30
2022-09-07T07:04:18.651Z,5.60
2022-09-07T07:07:20.234Z,4.60
2022-09-07T07:10:24.770Z,5.30
2022-09-07T07:13:28.022Z,5.50
2022-09-07T07:16:29.620Z,5.40
2022-09-07T07:19:31.393Z,5.50
2022-09-07T07:22:48.413Z,5.90
2022-09-07T07:25:50.042Z,5.20
2022-09-07T07:29:02.797Z,4.50
2022-09-07T07:32:05.497Z,4.90
2022-09-07T07:35:08.191Z,5.20
2022-09-07T07:48:16.051Z,4.70
2022-09-07T07:51:17.715Z,5.10
2022-09-07T07:54:19.357Z,4.50
2022-09-07T07:57:20.899Z,4.70
2022-09-07T08:00:37.424Z,5.80
2022-09-07T08:03:46.877Z,5.90
2022-09-07T08:06:48.604Z,5.90
2022-09-07T08:09:50.315Z,5.40
2022-09-07T08:12:52.597Z,5.20
2022-09-07T08:19:00.527Z,4.50
2022-09-07T08:22:03.258Z,4.80
2022-09-07T08:25:06.526Z,5.40
2022-09-07T08:28:08.149Z,4.80
2022-09-07T08:31:15.309Z,4.40
2022-09-07T08:34:17.065Z,4.50
2022-09-07T08:37:18.595Z,4.80
2022-09-07T08:40:20.309Z,4.90
2022-09-07T08:43:27.936Z,4.70
2022-09-07T08:46:48.183Z,5.40
2022-09-07T08:50:19.741Z,5.10
2022-09-07T08:53:22.323Z,5.70
2022-09-07T08:56:34.749Z,9.40
2022-09-07T08:59:42.007Z,11.30
2022-09-07T09:02:45.025Z,5.10
2022-09-07T09:05:56.468Z,4.50
2022-09-07T09:09:07.336Z,4.30
2022-09-07T09:12:47.971Z,12.60
2022-09-07T09:16:04.019Z,4.30
2022-09-07T09:19:30.392Z,3.90
2022-09-07T09:22:32.360Z,3.40
2022-09-07T09:25:36.543Z,3.50
2022-09-07T09:28:38.819Z,3.10
2022-09-07T09:31:40.600Z,3.60
2022-09-07T09:35:00.628Z,3.70
2022-09-07T09:38:02.996Z,3.90
2022-09-07T09:41:09.074Z,3.70
2022-09-07T09:44:15.486Z,3.10
2022-09-07T09:47:30.027Z,3.50
2022-09-07T09:54:07.312Z,3.40
2022-09-07T09:57:16.694Z,2.90
2022-09-07T10:00:29.220Z,4.00
2022-09-07T10:07:02.943Z,4.00
2022-09-07T10:10:04.883Z,2.90
2022-09-07T10:13:19.985Z,3.30
2022-09-07T10:16:38.819Z,3.70
2022-09-07T10:19:42.576Z,3.80
2022-09-07T10:22:56.435Z,4.70
2022-09-07T10:25:58.021Z,3.30
2022-09-07T10:29:15.097Z,3.20
2022-09-07T10:32:26.331Z,3.30
2022-09-07T10:35:35.044Z,3.80
2022-09-07T10:38:45.232Z,3.40
2022-09-07T10:41:58.834Z,3.20
2022-09-07T10:45:27.084Z,3.50
2022-09-07T10:48:35.060Z,3.20
2022-09-07T10:51:54.508Z,3.60
2022-09-07T10:55:06.180Z,3.60
2022-09-07T10:59:01.432Z,3.30
2022-09-07T11:01:59.818Z,4.00
2022-09-07T11:05:23.008Z,3.30
2022-09-07T11:12:16.859Z,3.50
2022-09-07T11:15:25.778Z,4.10
2022-09-07T11:18:32.821Z,3.20
2022-09-07T11:22:15.460Z,3.00
2022-09-07T11:28:47.183Z,3.30
2022-09-07T11:31:57.964Z,3.20
2022-09-07T11:35:11.800Z,3.50
2022-09-07T11:38:28.390Z,2.80
2022-09-07T11:41:36.212Z,2.60
2022-09-07T11:44:56.719Z,3.10
2022-09-07T11:48:13.059Z,3.30
2022-09-07T11:51:25.900Z,3.20
2022-09-07T11:54:33.250Z,3.00
2022-09-07T11:57:52.394Z,3.00
2022-09-07T12:01:15.331Z,2.80
2022-09-07T12:04:28.990Z,2.80
2022-09-07T12:07:41.540Z,3.00
2022-09-07T12:10:54.442Z,3.00
2022-09-07T12:14:33.645Z,2.80
2022-09-07T12:17:58.698Z,2.90
2022-09-07T12:21:00.324Z,3.10
2022-09-07T12:24:03.013Z,2.70
2022-09-07T12:27:25.756Z,3.00
2022-09-07T12:30:29.499Z,2.80
2022-09-07T12:33:34.246Z,3.20
2022-09-07T12:36:35.728Z,2.80
2022-09-07T12:39:40.688Z,4.40
2022-09-07T12:42:42.391Z,3.10
2022-09-07T12:45:46.655Z,2.60
2022-09-07T12:49:04.060Z,2.80
2022-09-07T12:52:36.315Z,3.10
2022-09-07T12:59:26.180Z,2.70
2022-09-07T13:02:27.804Z,3.30
2022-09-07T13:05:58.345Z,2.80
2022-09-07T13:09:18.457Z,2.80
2022-09-07T13:16:06.278Z,3.10
2022-09-07T13:19:33.904Z,2.60
2022-09-07T13:22:35.600Z,3.00
2022-09-07T13:25:37.068Z,3.10
2022-09-07T13:28:51.886Z,3.20
2022-09-07T13:32:13.010Z,2.90
2022-09-07T13:35:23.796Z,3.10
2022-09-07T13:38:26.209Z,2.70
2022-09-07T13:41:36.566Z,3.00
2022-09-07T13:44:38.338Z,2.60
2022-09-07T13:47:52.554Z,2.70
2022-09-07T13:51:09.844Z,3.20
2022-09-07T13:54:40.782Z,3.40
2022-09-07T13:58:00.468Z,2.80
2022-09-07T14:01:06.970Z,3.00
2022-09-07T14:04:22.031Z,2.80
2022-09-07T14:07:25.808Z,2.80
2022-09-07T14:10:28.532Z,2.80
2022-09-07T14:13:30.492Z,3.20
2022-09-07T14:19:48.936Z,2.90
2022-09-07T14:22:53.374Z,3.00
2022-09-07T14:26:22.570Z,3.30
2022-09-07T14:29:29.485Z,3.10
2022-09-07T14:32:31.505Z,2.90
2022-09-07T14:35:36.567Z,2.90
2022-09-07T14:42:03.108Z,3.20
2022-09-07T14:45:22.533Z,3.10
2022-09-07T14:48:31.436Z,3.40
2022-09-07T14:51:36.496Z,3.20
2022-09-07T14:54:39.230Z,3.00
2022-09-07T14:57:41.300Z,3.00
2022-09-07T15:04:30.552Z,3.00
2022-09-07T15:07:38.946Z,2.80
2022-09-07T15:10:41.304Z,2.90
2022-09-07T15:13:44.458Z,3.20
2022-09-07T15:20:30.948Z,3.30
2022-09-07T15:23:32.742Z,3.00
2022-09-07T15:30:02.553Z,3.00
2022-09-07T15:33:04.104Z,3.50
2022-09-07T15:36:06.992Z,3.30
2022-09-07T15:39:27.340Z,3.10
2022-09-07T15:45:51.279Z,4.40
2022-09-07T15:48:55.072Z,3.90
2022-09-07T15:52:11.984Z,3.80
2022-09-07T15:55:14.430Z,3.30
2022-09-07T15:58:16.214Z,3.50
2022-09-07T16:04:39.453Z,3.70
2022-09-07T16:14:20.595Z,3.30
2022-09-07T16:17:35.782Z,3.40
2022-09-07T16:20:40.452Z,3.40
2022-09-07T16:23:44.797Z,3.20
2022-09-07T16:26:46.305Z,3.70
2022-09-07T16:29:48.404Z,3.80
2022-09-07T16:32:51.707Z,3.40
2022-09-07T16:39:02.607Z,3.80
2022-09-07T16:48:29.293Z,3.60
2022-09-07T16:51:30.870Z,3.90
2022-09-07T16:54:32.612Z,3.40
2022-09-07T16:58:35.361Z,4.40
2022-09-07T17:00:56.019Z,3.80
2022-09-07T17:03:58.109Z,4.20
2022-09-07T17:10:04.867Z,4.20
2022-09-07T17:13:09.252Z,5.20
2022-09-07T17:16:19.169Z,5.10
2022-09-07T17:19:29.194Z,4.60
2022-09-07T17:22:31.325Z,5.70
2022-09-07T17:28:36.723Z,6.30
2022-09-07T17:35:00.092Z,7.20
2022-09-07T17:39:14.442Z,6.30
2022-09-07T17:41:27.244Z,5.90
2022-09-07T17:44:33.303Z,5.40
2022-09-07T17:47:38.137Z,6.00
2022-09-07T17:53:45.271Z,5.30
2022-09-07T17:56:47.281Z,5.60
2022-09-07T18:03:14.080Z,6.00
2022-09-07T18:06:15.806Z,6.70
2022-09-07T18:09:18.886Z,7.50
2022-09-07T18:12:20.341Z,7.20
2022-09-07T18:15:21.916Z,7.50
2022-09-07T18:18:23.824Z,8.00
2022-09-07T18:21:31.030Z,8.40
2022-09-07T18:24:32.592Z,9.10
2022-09-07T18:27:36.454Z,8.60
2022-09-07T18:30:39.175Z,8.10
2022-09-07T18:33:41.017Z,7.60
2022-09-07T18:36:44.002Z,7.70
2022-09-07T18:39:50.831Z,7.50
2022-09-07T18:42:52.713Z,7.30
2022-09-07T18:46:08.574Z,7.90
2022-09-07T18:49:13.313Z,6.00
2022-09-07T18:55:37.345Z,6.00
2022-09-07T18:58:41.339Z,6.10
2022-09-07T19:01:43.152Z,6.80
2022-09-07T19:08:08.541Z,6.50
2022-09-07T19:11:16.481Z,7.50
2022-09-07T19:14:18.146Z,8.20
2022-09-07T19:17:19.758Z,7.90
2022-09-07T19:20:21.326Z,7.50
2022-09-07T19:23:23.862Z,6.70
2022-09-07T19:26:28.312Z,6.10
2022-09-07T19:29:31.129Z,5.40
2022-09-07T19:32:33.161Z,5.90
2022-09-07T19:35:35.678Z,5.90
2022-09-07T19:38:37.230Z,5.70
2022-09-07T19:41:42.068Z,5.80
2022-09-07T19:44:44.268Z,5.80
2022-09-07T19:47:45.860Z,6.10
2022-09-07T19:50:49.767Z,6.00
2022-09-07T19:53:51.299Z,5.20
2022-09-07T19:56:55.890Z,6.00
2022-09-07T20:00:01.095Z,5.60
2022-09-07T20:03:10.881Z,5.30
2022-09-07T20:06:15.596Z,5.50
2022-09-07T20:09:20.357Z,5.70
2022-09-07T20:12:22.995Z,5.30
2022-09-07T20:15:25.497Z,6.00
2022-09-07T20:18:27.345Z,5.60
2022-09-07T20:21:30.254Z,6.00
2022-09-07T20:24:33.556Z,5.70
2022-09-07T20:27:35.279Z,5.80
2022-09-07T20:30:43.089Z,5.50
2022-09-07T20:33:46.135Z,6.10
2022-09-07T20:36:51.194Z,5.10
2022-09-07T20:39:52.712Z,5.90
2022-09-07T20:42:54.190Z,5.30
2022-09-07T20:45:57.394Z,6.20
2022-09-07T20:49:02.494Z,5.70
2022-09-07T20:52:04.751Z,6.00
2022-09-07T20:55:07.230Z,5.70
2022-09-07T20:58:08.805Z,6.00
2022-09-07T21:01:17.666Z,6.40
2022-09-07T21:04:19.199Z,5.90
2022-09-07T21:07:22.237Z,5.90
2022-09-07T21:10:23.771Z,5.90
2022-09-07T21:13:25.293Z,6.70
2022-09-07T21:16:27.792Z,5.70
2022-09-07T21:19:29.319Z,6.20
2022-09-07T21:22:34.173Z,6.40
2022-09-07T21:25:43.397Z,5.80
2022-09-07T21:28:44.886Z,6.00
2022-09-07T21:31:47.292Z,8.00
2022-09-07T21:34:48.830Z,6.70
2022-09-07T21:37:58.835Z,6.50
2022-09-07T21:41:09.109Z,6.20
2022-09-07T21:44:12.913Z,6.40
2022-09-07T21:47:15.153Z,6.90
2022-09-07T21:50:16.921Z,6.70
2022-09-07T21:53:18.459Z,7.00
2022-09-07T21:56:20.386Z,7.80
2022-09-07T21:59:21.811Z,6.80
2022-09-07T22:02:23.410Z,7.20
2022-09-07T22:05:24.938Z,6.90
2022-09-07T22:08:26.445Z,7.80
2022-09-07T22:11:29.590Z,7.70
2022-09-07T22:14:31.224Z,7.70
2022-09-07T22:17:32.697Z,7.00
2022-09-07T22:20:34.297Z,7.00
2022-09-07T22:23:39.273Z,7.10
2022-09-07T22:26:40.868Z,7.60
2022-09-07T22:29:42.432Z,7.00
2022-09-07T22:32:48.477Z,7.00
2022-09-07T22:35:50.042Z,7.20
2022-09-07T22:38:56.515Z,7.20
2022-09-07T22:41:57.943Z,6.60
2022-09-07T22:44:59.410Z,7.30
2022-09-07T22:48:01.409Z,7.00
2022-09-07T22:51:03.899Z,8.10
2022-09-07T22:54:05.783Z,7.10
2022-09-07T22:57:07.291Z,7.10
2022-09-07T23:00:09.468Z,7.30
2022-09-07T23:06:30.727Z,6.80
2022-09-07T23:09:32.316Z,7.00
2022-09-07T23:12:33.833Z,6.80
2022-09-07T23:15:35.745Z,8.20
2022-09-07T23:18:40.317Z,7.10
2022-09-07T23:21:42.861Z,7.20
2022-09-07T23:24:44.435Z,7.80
2022-09-07T23:27:45.983Z,7.00
2022-09-07T23:30:50.855Z,7.10
2022-09-07T23:33:52.347Z,6.80
2022-09-07T23:36:53.810Z,7.10
2022-09-07T23:39:55.633Z,6.30
2022-09-07T23:42:57.696Z,7.30
2022-09-07T23:45:59.394Z,7.00
2022-09-07T23:49:01.076Z,6.60
2022-09-07T23:52:02.655Z,7.10
2022-09-07T23:55:04.754Z,6.70
2022-09-07T23:58:07.158Z,6.20
